createdAt,value
2023-07-26T00:02:06.208Z,19.00
2023-07-26T00:04:34.628Z,18.90
2023-07-26T00:07:02.978Z,18.90
2023-07-26T00:09:31.411Z,18.90
2023-07-26T00:11:59.805Z,18.90
2023-07-26T00:14:28.363Z,18.90
2023-07-26T00:16:58.009Z,18.90
2023-07-26T00:19:26.561Z,18.90
2023-07-26T00:21:54.946Z,18.80
2023-07-26T00:24:23.293Z,18.90
2023-07-26T00:26:51.593Z,18.90
2023-07-26T00:29:19.950Z,18.80
2023-07-26T00:31:48.371Z,18.80
2023-07-26T00:34:18.122Z,18.80
2023-07-26T00:36:46.456Z,18.80
2023-07-26T00:39:16.175Z,18.80
2023-07-26T00:41:44.567Z,18.80
2023-07-26T00:44:12.945Z,18.70
2023-07-26T00:46:41.711Z,18.80
2023-07-26T00:49:10.486Z,18.80
2023-07-26T00:51:42.489Z,18.80
2023-07-26T00:54:11.607Z,18.80
2023-07-26T00:56:40.158Z,18.80
2023-07-26T00:59:08.649Z,18.80
2023-07-26T01:01:37.384Z,18.80
2023-07-26T01:04:06.122Z,18.70
2023-07-26T01:06:47.549Z,18.90
2023-07-26T01:09:22.785Z,18.80
2023-07-26T01:12:00.297Z,18.80
2023-07-26T01:14:36.855Z,18.80
2023-07-26T01:17:06.067Z,18.70
2023-07-26T01:19:34.668Z,18.80
2023-07-26T01:22:04.534Z,19.00
2023-07-26T01:24:33.116Z,18.80
2023-07-26T01:27:01.503Z,18.70
2023-07-26T01:29:30.031Z,18.70
2023-07-26T01:31:59.951Z,18.80
2023-07-26T01:34:28.870Z,18.80
2023-07-26T01:36:57.726Z,18.80
2023-07-26T01:39:28.475Z,18.70
2023-07-26T01:41:57.156Z,18.70
2023-07-26T01:44:25.531Z,18.70
2023-07-26T01:46:55.037Z,18.70
2023-07-26T01:49:23.354Z,18.70
2023-07-26T01:51:51.700Z,18.70
2023-07-26T01:54:20.087Z,18.70
2023-07-26T01:56:50.522Z,18.70
2023-07-26T01:59:19.019Z,18.70
2023-07-26T02:01:47.462Z,18.70
2023-07-26T02:04:16.792Z,18.70
2023-07-26T02:06:52.121Z,18.70
2023-07-26T02:09:21.579Z,18.70
2023-07-26T02:11:51.557Z,18.70
2023-07-26T02:14:19.935Z,18.70
2023-07-26T02:16:48.388Z,18.60
2023-07-26T02:19:17.257Z,18.60
2023-07-26T02:21:45.588Z,18.60
2023-07-26T02:24:14.119Z,18.60
2023-07-26T02:26:42.744Z,18.60
2023-07-26T02:29:13.399Z,18.60
2023-07-26T02:31:42.237Z,18.60
2023-07-26T02:34:10.878Z,18.60
2023-07-26T02:36:42.997Z,18.60
2023-07-26T02:39:11.407Z,18.60
2023-07-26T02:41:39.828Z,18.60
2023-07-26T02:44:08.496Z,18.60
2023-07-26T02:46:38.190Z,18.60
2023-07-26T02:49:06.596Z,18.60
2023-07-26T02:51:35.130Z,18.50
2023-07-26T02:54:03.847Z,18.50
2023-07-26T02:56:32.303Z,18.50
2023-07-26T02:59:00.710Z,18.60
2023-07-26T03:01:29.282Z,18.50
2023-07-26T03:03:59.260Z,18.50
2023-07-26T03:06:28.758Z,18.50
2023-07-26T03:08:57.065Z,18.60
2023-07-26T03:11:26.488Z,18.50
2023-07-26T03:13:56.858Z,18.90
2023-07-26T03:16:25.467Z,18.50
2023-07-26T03:18:53.869Z,18.50
2023-07-26T03:21:23.554Z,18.50
2023-07-26T03:23:51.920Z,18.50
2023-07-26T03:26:20.450Z,18.40
2023-07-26T03:28:48.803Z,18.40
2023-07-26T03:31:17.177Z,18.30
2023-07-26T03:33:45.606Z,18.30
2023-07-26T03:36:13.972Z,18.20
2023-07-26T03:38:43.668Z,18.20
2023-07-26T03:41:12.021Z,18.10
2023-07-26T03:43:40.506Z,18.10
2023-07-26T03:46:09.112Z,18.00
2023-07-26T03:48:39.956Z,18.00
2023-07-26T03:51:08.421Z,17.90
2023-07-26T03:53:36.796Z,17.90
2023-07-26T03:56:06.723Z,17.80
2023-07-26T03:58:35.332Z,17.90
2023-07-26T04:01:05.111Z,17.80
2023-07-26T04:03:33.805Z,17.80
2023-07-26T04:06:02.821Z,17.80
2023-07-26T04:08:31.528Z,17.80
2023-07-26T04:11:04.378Z,17.80
2023-07-26T04:13:34.213Z,17.80
2023-07-26T04:16:03.403Z,17.80
2023-07-26T04:18:31.715Z,17.80
2023-07-26T04:21:00.555Z,17.80
2023-07-26T04:23:28.947Z,17.80
2023-07-26T04:25:58.596Z,17.80
2023-07-26T04:28:26.898Z,17.80
2023-07-26T04:30:57.490Z,17.80
2023-07-26T04:33:25.899Z,17.80
2023-07-26T04:35:54.306Z,17.80
2023-07-26T04:38:22.831Z,17.80
2023-07-26T04:40:51.153Z,17.80
2023-07-26T04:43:21.024Z,17.90
2023-07-26T04:45:49.618Z,17.80
2023-07-26T04:48:20.706Z,17.80
2023-07-26T04:50:50.503Z,17.90
2023-07-26T04:53:19.407Z,17.90
2023-07-26T04:55:50.100Z,17.90
2023-07-26T04:58:19.242Z,17.90
2023-07-26T05:00:48.013Z,17.90
2023-07-26T05:03:16.538Z,17.80
2023-07-26T05:05:51.475Z,17.80
2023-07-26T05:08:20.199Z,17.90
2023-07-26T05:10:51.334Z,17.80
2023-07-26T05:13:20.256Z,17.80
2023-07-26T05:15:49.363Z,17.80
2023-07-26T05:18:17.870Z,17.90
2023-07-26T05:20:50.046Z,17.90
2023-07-26T05:23:18.676Z,17.90
2023-07-26T05:25:47.278Z,17.90
2023-07-26T05:28:15.769Z,17.90
2023-07-26T05:30:44.651Z,18.10
2023-07-26T05:33:13.041Z,17.80
2023-07-26T05:35:41.615Z,17.90
2023-07-26T05:38:11.330Z,17.90
2023-07-26T05:40:39.674Z,17.80
2023-07-26T05:43:08.032Z,17.80
2023-07-26T05:45:36.358Z,17.90
2023-07-26T05:48:04.925Z,17.80
2023-07-26T05:50:33.482Z,17.90
2023-07-26T05:53:01.861Z,17.80
2023-07-26T05:55:31.653Z,17.90
2023-07-26T05:58:00.014Z,17.90
2023-07-26T06:00:28.427Z,17.90
2023-07-26T06:02:56.791Z,17.90
2023-07-26T06:05:25.578Z,17.90
2023-07-26T06:07:53.996Z,17.90
2023-07-26T06:10:22.559Z,17.90
2023-07-26T06:12:52.220Z,17.90
2023-07-26T06:15:20.636Z,17.90
2023-07-26T06:17:49.054Z,17.90
2023-07-26T06:20:17.576Z,17.90
2023-07-26T06:22:45.912Z,17.90
2023-07-26T06:25:14.394Z,17.90
2023-07-26T06:27:42.824Z,17.90
2023-07-26T06:30:14.813Z,17.90
2023-07-26T06:32:43.282Z,17.90
2023-07-26T06:35:12.560Z,17.90
2023-07-26T06:37:40.890Z,17.90
2023-07-26T06:40:10.103Z,17.90
2023-07-26T06:42:38.517Z,17.90
2023-07-26T06:45:07.524Z,18.00
2023-07-26T06:47:37.335Z,18.00
2023-07-26T06:50:06.543Z,18.00
2023-07-26T06:52:35.058Z,18.00
2023-07-26T06:55:04.473Z,18.00
2023-07-26T06:57:32.937Z,18.00
2023-07-26T07:00:01.497Z,18.00
2023-07-26T07:02:30.116Z,18.00
2023-07-26T07:05:00.906Z,18.00
2023-07-26T07:07:29.317Z,18.00
2023-07-26T07:09:57.664Z,18.00
2023-07-26T07:12:26.001Z,18.10
2023-07-26T07:14:55.188Z,18.00
2023-07-26T07:17:23.615Z,18.00
2023-07-26T07:19:52.023Z,18.10
2023-07-26T07:22:22.508Z,18.00
2023-07-26T07:24:50.933Z,18.10
2023-07-26T07:27:19.254Z,18.10
2023-07-26T07:29:47.623Z,18.10
2023-07-26T07:32:22.233Z,18.10
2023-07-26T07:34:51.690Z,18.10
2023-07-26T07:37:22.006Z,18.10
2023-07-26T07:39:50.377Z,18.10
2023-07-26T07:42:18.784Z,18.10
2023-07-26T07:44:47.155Z,18.10
2023-07-26T07:47:17.456Z,18.20
2023-07-26T07:49:48.100Z,18.20
2023-07-26T07:52:16.845Z,18.20
2023-07-26T07:54:46.620Z,18.20
2023-07-26T07:57:15.561Z,18.20
2023-07-26T07:59:43.932Z,18.20
2023-07-26T08:02:12.366Z,18.20
2023-07-26T08:04:40.770Z,18.30
2023-07-26T08:07:09.365Z,18.30
2023-07-26T08:09:37.756Z,18.30
2023-07-26T08:12:08.302Z,18.40
2023-07-26T08:14:37.647Z,18.40
2023-07-26T08:17:06.678Z,18.40
2023-07-26T08:19:35.119Z,18.40
2023-07-26T08:22:04.236Z,18.40
2023-07-26T08:24:33.359Z,18.40
2023-07-26T08:27:04.359Z,18.50
2023-07-26T08:29:34.239Z,18.50
2023-07-26T08:32:02.666Z,18.50
2023-07-26T08:34:31.013Z,18.50
2023-07-26T08:36:59.454Z,18.60
2023-07-26T08:39:35.365Z,18.60
2023-07-26T08:42:04.594Z,18.60
2023-07-26T08:44:35.891Z,18.60
2023-07-26T08:47:06.788Z,18.60
2023-07-26T08:49:35.393Z,18.60
2023-07-26T08:52:04.954Z,18.60
2023-07-26T08:54:34.723Z,18.60
2023-07-26T08:57:03.722Z,18.60
2023-07-26T08:59:34.133Z,18.60
2023-07-26T09:02:04.832Z,18.60
2023-07-26T09:04:34.912Z,18.60
2023-07-26T09:07:04.063Z,18.60
2023-07-26T09:09:34.113Z,18.50
2023-07-26T09:12:04.108Z,18.40
2023-07-26T09:14:35.762Z,18.40
2023-07-26T09:17:06.304Z,18.30
2023-07-26T09:19:36.139Z,18.30
2023-07-26T09:22:06.305Z,18.30
2023-07-26T09:24:37.353Z,18.20
2023-07-26T09:27:07.687Z,18.20
2023-07-26T09:29:38.783Z,18.20
2023-07-26T09:32:08.313Z,18.30
2023-07-26T09:34:37.065Z,18.20
2023-07-26T09:37:06.638Z,18.20
2023-07-26T09:39:35.813Z,18.20
2023-07-26T09:42:09.588Z,18.20
2023-07-26T09:44:39.696Z,18.20
2023-07-26T09:47:09.575Z,18.30
2023-07-26T09:49:54.424Z,18.20
2023-07-26T09:52:41.982Z,18.30
2023-07-26T09:57:50.281Z,18.30
2023-07-26T10:00:20.860Z,18.30
2023-07-26T10:02:57.222Z,18.30
2023-07-26T10:05:27.356Z,18.30
2023-07-26T10:07:57.052Z,18.30
2023-07-26T10:10:29.657Z,18.30
2023-07-26T10:13:00.136Z,18.30
2023-07-26T10:15:32.427Z,18.30
2023-07-26T10:18:02.232Z,18.30
2023-07-26T10:20:31.965Z,18.30
2023-07-26T10:23:05.236Z,18.30
2023-07-26T10:25:35.044Z,18.30
2023-07-26T10:28:04.623Z,18.20
2023-07-26T10:30:35.125Z,18.20
2023-07-26T10:33:03.793Z,18.20
2023-07-26T10:35:33.435Z,18.20
2023-07-26T10:38:05.178Z,18.20
2023-07-26T10:40:37.737Z,18.20
2023-07-26T10:43:34.527Z,18.30
2023-07-26T10:46:10.733Z,18.30
2023-07-26T10:48:40.801Z,18.40
2023-07-26T10:51:26.685Z,18.40
2023-07-26T10:53:55.961Z,18.40
2023-07-26T10:56:28.897Z,18.50
2023-07-26T10:58:59.417Z,18.50
2023-07-26T11:01:42.159Z,18.50
2023-07-26T11:04:15.010Z,18.50
2023-07-26T11:06:55.401Z,18.50
2023-07-26T11:09:26.966Z,18.60
2023-07-26T11:12:00.627Z,18.60
2023-07-26T11:14:32.094Z,18.50
2023-07-26T11:17:28.187Z,18.50
2023-07-26T11:19:56.693Z,18.50
2023-07-26T11:22:25.683Z,18.60
2023-07-26T11:24:54.108Z,18.60
2023-07-26T11:27:22.615Z,18.60
2023-07-26T11:29:51.038Z,18.60
2023-07-26T11:32:29.537Z,18.60
2023-07-26T11:34:58.560Z,18.70
2023-07-26T11:37:27.112Z,18.70
2023-07-26T11:40:06.150Z,18.70
2023-07-26T11:42:34.765Z,18.70
2023-07-26T11:45:04.779Z,18.70
2023-07-26T11:47:36.919Z,18.80
2023-07-26T11:50:06.321Z,18.80
2023-07-26T11:52:34.964Z,18.80
2023-07-26T11:55:05.380Z,18.80
2023-07-26T11:57:34.892Z,18.80
2023-07-26T12:00:05.993Z,18.80
2023-07-26T12:02:44.668Z,18.80
2023-07-26T12:05:26.848Z,18.90
2023-07-26T12:07:57.255Z,18.90
2023-07-26T12:10:32.556Z,18.90
2023-07-26T12:13:01.458Z,18.90
2023-07-26T12:15:30.152Z,19.00
2023-07-26T12:18:02.098Z,19.00
2023-07-26T12:20:39.959Z,19.00
2023-07-26T12:23:14.020Z,19.10
2023-07-26T12:25:42.544Z,19.10
2023-07-26T12:28:11.060Z,19.10
2023-07-26T12:30:39.416Z,19.10
2023-07-26T12:33:14.069Z,19.20
2023-07-26T12:35:45.440Z,19.10
2023-07-26T12:38:16.013Z,19.10
2023-07-26T12:40:44.394Z,19.20
2023-07-26T12:43:26.817Z,19.20
2023-07-26T12:45:55.787Z,19.20
2023-07-26T12:48:26.899Z,19.20
2023-07-26T12:50:56.702Z,19.30
2023-07-26T12:53:27.683Z,19.30
2023-07-26T12:55:56.205Z,19.30
2023-07-26T12:58:25.038Z,19.30
2023-07-26T13:00:53.382Z,19.30
2023-07-26T13:03:22.579Z,19.30
2023-07-26T13:05:52.476Z,19.30
2023-07-26T13:08:20.963Z,19.30
2023-07-26T13:10:49.390Z,19.30
2023-07-26T13:13:17.812Z,19.30
2023-07-26T13:15:46.218Z,19.20
2023-07-26T13:18:14.597Z,19.20
2023-07-26T13:20:43.099Z,19.20
2023-07-26T13:23:13.246Z,19.10
2023-07-26T13:25:42.739Z,19.10
2023-07-26T13:28:11.277Z,19.10
2023-07-26T13:30:39.808Z,19.10
2023-07-26T13:33:08.266Z,19.20
2023-07-26T13:35:37.089Z,19.20
2023-07-26T13:38:05.431Z,19.20
2023-07-26T13:40:35.235Z,19.30
2023-07-26T13:43:03.626Z,19.40
2023-07-26T13:45:32.076Z,19.50
2023-07-26T13:48:00.643Z,19.60
2023-07-26T13:50:29.195Z,19.60
2023-07-26T13:52:57.576Z,19.70
2023-07-26T13:55:26.157Z,19.80
2023-07-26T13:57:56.138Z,19.80
2023-07-26T14:00:24.544Z,19.90
2023-07-26T14:02:54.837Z,20.00
2023-07-26T14:05:23.355Z,20.00
2023-07-26T14:07:51.885Z,20.00
2023-07-26T14:10:20.257Z,20.10
2023-07-26T14:12:48.739Z,20.00
2023-07-26T14:15:18.515Z,20.10
2023-07-26T14:17:48.244Z,20.10
2023-07-26T14:20:16.751Z,20.00
2023-07-26T14:22:45.097Z,20.10
2023-07-26T14:25:13.470Z,20.00
2023-07-26T14:27:42.555Z,20.10
2023-07-26T14:30:11.926Z,20.10
2023-07-26T14:32:42.055Z,20.10
2023-07-26T14:35:10.683Z,20.10
2023-07-26T14:37:39.069Z,20.10
2023-07-26T14:40:08.818Z,20.10
2023-07-26T14:42:37.178Z,20.10
2023-07-26T14:45:06.144Z,20.10
2023-07-26T14:47:34.600Z,20.20
2023-07-26T14:50:05.376Z,20.20
2023-07-26T14:52:34.981Z,20.20
2023-07-26T14:55:03.501Z,20.20
2023-07-26T14:57:32.230Z,20.30
2023-07-26T15:00:00.739Z,20.30
2023-07-26T15:02:30.299Z,20.40
2023-07-26T15:05:00.717Z,20.50
2023-07-26T15:07:33.327Z,20.50
2023-07-26T15:10:03.381Z,20.60
2023-07-26T15:12:32.000Z,20.60
2023-07-26T15:15:01.018Z,20.70
2023-07-26T15:17:29.459Z,20.70
2023-07-26T15:19:57.954Z,20.80
2023-07-26T15:22:26.326Z,20.80
2023-07-26T15:24:56.199Z,20.90
2023-07-26T15:27:24.970Z,21.00
2023-07-26T15:29:53.395Z,21.00
2023-07-26T15:32:23.960Z,21.10
2023-07-26T15:34:56.878Z,21.20
2023-07-26T15:37:25.524Z,21.30
2023-07-26T15:39:55.262Z,21.50
2023-07-26T15:47:27.356Z,22.00
2023-07-26T15:49:56.513Z,22.20
2023-07-26T15:52:26.634Z,22.40
2023-07-26T15:54:56.501Z,22.60
2023-07-26T15:57:24.960Z,22.80
2023-07-26T15:59:53.415Z,22.90
2023-07-26T16:02:21.711Z,23.00
2023-07-26T16:07:21.329Z,23.00
2023-07-26T16:09:49.834Z,22.90
2023-07-26T16:15:35.611Z,22.90
2023-07-26T16:20:11.562Z,22.80
2023-07-26T16:22:40.096Z,22.80
2023-07-26T16:25:10.094Z,22.70
2023-07-26T16:27:39.836Z,22.70
2023-07-26T16:30:09.351Z,22.70
2023-07-26T16:32:38.111Z,22.80
2023-07-26T16:35:07.263Z,22.80
2023-07-26T16:37:35.749Z,22.70
2023-07-26T16:40:04.357Z,22.70
2023-07-26T16:42:32.720Z,22.80
2023-07-26T16:45:02.607Z,22.70
2023-07-26T16:47:31.969Z,22.60
2023-07-26T16:50:00.491Z,22.60
2023-07-26T16:52:28.798Z,22.50
2023-07-26T16:54:57.188Z,22.50
2023-07-26T16:57:25.747Z,22.60
2023-07-26T16:59:54.228Z,22.60
2023-07-26T17:02:24.492Z,22.60
2023-07-26T17:04:53.159Z,22.60
2023-07-26T17:07:21.578Z,22.50
2023-07-26T17:09:49.963Z,22.50
2023-07-26T17:12:18.447Z,22.50
2023-07-26T17:14:46.929Z,22.50
2023-07-26T17:17:15.285Z,22.50
2023-07-26T17:19:45.038Z,22.50
2023-07-26T17:22:14.024Z,22.50
2023-07-26T17:24:42.408Z,22.40
2023-07-26T17:27:10.952Z,22.30
2023-07-26T17:29:40.524Z,22.30
2023-07-26T17:32:09.931Z,22.30
2023-07-26T17:34:38.361Z,22.30
2023-07-26T17:37:08.731Z,22.20
2023-07-26T17:39:37.117Z,22.20
2023-07-26T17:42:05.897Z,22.20
2023-07-26T17:44:34.516Z,22.20
2023-07-26T17:47:02.977Z,22.20
2023-07-26T17:49:31.363Z,22.20
2023-07-26T17:52:00.452Z,22.20
2023-07-26T17:54:37.010Z,22.10
2023-07-26T17:57:06.006Z,22.10
2023-07-26T17:59:39.127Z,22.00
2023-07-26T18:02:08.619Z,22.00
2023-07-26T18:04:37.083Z,21.90
2023-07-26T18:07:06.208Z,21.90
2023-07-26T18:09:37.131Z,21.80
2023-07-26T18:12:06.837Z,21.80
2023-07-26T18:14:35.370Z,21.80
2023-07-26T18:17:03.731Z,21.80
2023-07-26T18:19:32.366Z,21.70
2023-07-26T18:22:01.802Z,21.70
2023-07-26T18:24:30.281Z,21.70
2023-07-26T18:26:59.982Z,21.70
2023-07-26T18:29:28.452Z,21.70
2023-07-26T18:31:57.430Z,21.60
2023-07-26T18:34:25.900Z,21.60
2023-07-26T18:36:54.317Z,21.60
2023-07-26T18:39:22.678Z,21.60
2023-07-26T18:41:51.133Z,21.60
2023-07-26T18:44:20.873Z,21.60
2023-07-26T18:46:49.377Z,21.60
2023-07-26T18:49:18.008Z,21.50
2023-07-26T18:51:46.447Z,21.50
2023-07-26T18:54:15.410Z,21.50
2023-07-26T18:56:44.095Z,21.50
2023-07-26T18:59:12.516Z,21.50
2023-07-26T19:01:42.286Z,21.40
2023-07-26T19:04:10.867Z,21.40
2023-07-26T19:06:39.215Z,21.40
2023-07-26T19:09:07.609Z,21.40
2023-07-26T19:11:36.130Z,21.40
2023-07-26T19:14:04.522Z,21.40
2023-07-26T19:16:33.478Z,21.40
2023-07-26T19:19:03.522Z,21.40
2023-07-26T19:21:32.083Z,21.30
2023-07-26T19:24:00.460Z,21.30
2023-07-26T19:26:29.910Z,21.30
2023-07-26T19:28:58.416Z,21.30
2023-07-26T19:31:26.974Z,21.30
2023-07-26T19:33:55.410Z,21.30
2023-07-26T19:36:25.196Z,21.30
2023-07-26T19:38:53.529Z,21.30
2023-07-26T19:41:21.906Z,21.20
2023-07-26T19:43:51.219Z,21.30
2023-07-26T19:46:19.870Z,21.30
2023-07-26T19:48:51.120Z,21.20
2023-07-26T19:51:19.855Z,21.20
2023-07-26T19:53:50.296Z,21.20
2023-07-26T19:56:19.055Z,21.20
2023-07-26T19:58:47.535Z,21.20
2023-07-26T20:01:16.095Z,21.20
2023-07-26T20:03:44.592Z,21.20
2023-07-26T20:06:13.852Z,21.20
2023-07-26T20:08:42.268Z,21.20
2023-07-26T20:11:12.106Z,21.20
2023-07-26T20:13:43.737Z,21.20
2023-07-26T20:16:12.286Z,21.20
2023-07-26T20:18:40.722Z,21.10
2023-07-26T20:21:09.703Z,21.10
2023-07-26T20:23:38.118Z,21.10
2023-07-26T20:26:06.557Z,21.10
2023-07-26T20:28:36.306Z,21.10
2023-07-26T20:31:04.913Z,21.10
2023-07-26T20:33:33.449Z,21.10
2023-07-26T20:36:03.021Z,21.10
2023-07-26T20:38:31.440Z,21.10
2023-07-26T20:40:59.881Z,21.10
2023-07-26T20:43:28.199Z,21.10
2023-07-26T20:45:58.147Z,21.10
2023-07-26T20:48:26.629Z,21.10
2023-07-26T20:50:55.475Z,21.10
2023-07-26T20:53:24.714Z,21.10
2023-07-26T20:55:53.335Z,21.00
2023-07-26T20:58:21.701Z,21.10
2023-07-26T21:00:52.702Z,21.10
2023-07-26T21:03:22.599Z,21.10
2023-07-26T21:05:51.219Z,21.00
2023-07-26T21:08:21.273Z,21.00
2023-07-26T21:10:49.805Z,21.00
2023-07-26T21:13:18.327Z,21.00
2023-07-26T21:15:46.988Z,21.00
2023-07-26T21:18:15.337Z,21.00
2023-07-26T21:20:47.106Z,21.00
2023-07-26T21:23:15.573Z,21.00
2023-07-26T21:25:47.356Z,21.00
2023-07-26T21:28:16.133Z,21.00
2023-07-26T21:30:48.711Z,21.00
2023-07-26T21:33:17.287Z,21.10
2023-07-26T21:35:47.151Z,21.00
2023-07-26T21:38:15.832Z,21.00
2023-07-26T21:40:44.167Z,21.00
2023-07-26T21:43:12.634Z,21.00
2023-07-26T21:45:41.147Z,21.00
2023-07-26T21:48:11.319Z,21.00
2023-07-26T21:50:43.106Z,21.00
2023-07-26T21:53:13.372Z,21.00
2023-07-26T21:55:41.737Z,21.00
2023-07-26T21:58:10.084Z,21.00
2023-07-26T22:00:43.488Z,21.00
2023-07-26T22:03:11.949Z,21.00
2023-07-26T22:05:40.418Z,21.00
2023-07-26T22:08:08.823Z,21.00
2023-07-26T22:10:38.484Z,21.00
2023-07-26T22:13:06.982Z,21.00
2023-07-26T22:15:36.178Z,21.00
2023-07-26T22:18:04.809Z,21.00
2023-07-26T22:20:33.420Z,21.00
2023-07-26T22:23:01.830Z,21.00
2023-07-26T22:25:30.160Z,21.00
2023-07-26T22:27:59.861Z,20.90
2023-07-26T22:30:28.172Z,20.90
2023-07-26T22:32:56.919Z,20.90
2023-07-26T22:35:27.496Z,20.90
2023-07-26T22:37:56.038Z,21.00
2023-07-26T22:40:24.309Z,20.90
2023-07-26T22:42:52.696Z,20.90
2023-07-26T22:45:22.757Z,20.90
2023-07-26T22:47:51.183Z,20.90
2023-07-26T22:50:20.811Z,20.90
2023-07-26T22:52:49.173Z,20.90
2023-07-26T22:55:19.428Z,20.90
2023-07-26T22:57:47.829Z,20.90
2023-07-26T23:00:16.618Z,20.90
2023-07-26T23:02:46.392Z,20.90
2023-07-26T23:05:15.141Z,20.90
2023-07-26T23:07:43.506Z,20.90
2023-07-26T23:10:12.153Z,20.90
2023-07-26T23:12:40.534Z,20.90
2023-07-26T23:15:09.680Z,20.80
2023-07-26T23:17:38.152Z,20.80
2023-07-26T23:20:09.685Z,20.80
2023-07-26T23:22:38.515Z,20.80
2023-07-26T23:25:07.850Z,20.80
2023-07-26T23:27:36.215Z,20.80
2023-07-26T23:30:04.822Z,20.80
2023-07-26T23:32:33.500Z,20.80
2023-07-26T23:35:01.971Z,20.80
2023-07-26T23:37:31.637Z,20.80
2023-07-26T23:40:00.025Z,20.80
2023-07-26T23:42:28.412Z,20.80
2023-07-26T23:44:56.775Z,20.80
2023-07-26T23:47:25.181Z,20.70
2023-07-26T23:49:53.539Z,20.70
2023-07-26T23:52:21.923Z,20.70
2023-07-26T23:54:51.842Z,20.70
2023-07-26T23:57:20.207Z,20.70
2023-07-26T23:59:48.513Z,20.70
